createdAt,value
2023-06-22T00:00:23.447Z,5.00
2023-06-22T00:01:26.031Z,5.00
2023-06-22T00:02:29.441Z,5.00
2023-06-22T00:03:31.894Z,5.00
2023-06-22T00:04:35.214Z,5.00
2023-06-22T00:05:37.392Z,5.00
2023-06-22T00:06:40.657Z,5.00
2023-06-22T00:07:42.853Z,4.17
2023-06-22T00:08:46.109Z,4.00
2023-06-22T00:09:48.322Z,4.50
2023-06-22T00:10:51.481Z,5.00
2023-06-22T00:11:53.651Z,5.00
2023-06-22T00:12:56.756Z,5.00
2023-06-22T00:14:00.596Z,5.00
2023-06-22T00:15:03.875Z,5.00
2023-06-22T00:16:06.310Z,5.00
2023-06-22T00:17:09.514Z,5.00
2023-06-22T00:18:12.447Z,5.00
2023-06-22T00:19:16.179Z,5.00
2023-06-22T00:20:19.224Z,5.00
2023-06-22T00:21:22.491Z,5.00
2023-06-22T00:22:29.559Z,5.00
2023-06-22T00:23:35.446Z,5.50
2023-06-22T00:24:37.924Z,6.00
2023-06-22T00:25:41.781Z,6.83
2023-06-22T00:26:44.233Z,7.00
2023-06-22T00:27:47.470Z,7.00
2023-06-22T00:28:50.627Z,7.00
2023-06-22T00:29:54.202Z,7.00
2023-06-22T00:30:57.467Z,7.50
2023-06-22T00:31:59.706Z,8.00
2023-06-22T00:33:03.471Z,8.00
2023-06-22T00:34:07.865Z,8.00
2023-06-22T00:35:11.413Z,8.00
2023-06-22T00:36:17.330Z,8.00
2023-06-22T00:37:20.695Z,7.50
2023-06-22T00:38:22.856Z,7.00
2023-06-22T00:39:26.014Z,7.00
2023-06-22T00:40:28.656Z,7.00
2023-06-22T00:41:32.063Z,7.17
2023-06-22T00:42:34.337Z,8.00
2023-06-22T00:43:37.536Z,8.00
2023-06-22T00:44:39.829Z,8.00
2023-06-22T00:45:44.384Z,8.00
2023-06-22T00:46:46.606Z,8.00
2023-06-22T00:47:49.901Z,8.00
2023-06-22T00:48:56.289Z,8.00
2023-06-22T00:49:58.634Z,8.00
2023-06-22T00:51:02.631Z,8.00
2023-06-22T00:52:05.142Z,8.00
2023-06-22T00:53:11.899Z,8.00
2023-06-22T00:54:14.588Z,7.00
2023-06-22T00:55:19.068Z,7.00
2023-06-22T00:56:25.922Z,7.00
2023-06-22T00:57:29.232Z,7.33
2023-06-22T00:58:32.757Z,8.00
2023-06-22T00:59:35.450Z,8.67
2023-06-22T01:00:39.271Z,9.00
2023-06-22T01:01:42.899Z,9.00
2023-06-22T01:02:47.541Z,9.00
2023-06-22T01:03:52.104Z,9.50
2023-06-22T01:04:56.513Z,13.83
2023-06-22T01:06:10.173Z,19.50
2023-06-22T01:07:19.901Z,20.33
2023-06-22T01:08:32.589Z,20.00
2023-06-22T01:09:42.980Z,19.33
2023-06-22T01:10:52.760Z,20.17
2023-06-22T01:11:57.650Z,21.50
2023-06-22T01:13:03.610Z,24.00
2023-06-22T01:14:13.101Z,28.67
2023-06-22T01:15:29.541Z,32.00
2023-06-22T01:16:35.543Z,31.33
2023-06-22T01:17:42.513Z,32.00
2023-06-22T01:18:46.414Z,32.00
2023-06-22T01:19:53.776Z,32.00
2023-06-22T01:20:58.739Z,35.17
2023-06-22T01:22:02.387Z,44.33
2023-06-22T01:23:11.447Z,50.50
2023-06-22T01:24:22.588Z,53.67
2023-06-22T01:25:31.449Z,70.50
2023-06-22T01:26:41.236Z,82.83
2023-06-22T01:27:55.086Z,96.50
2023-06-22T01:29:01.420Z,105.83
2023-06-22T01:30:06.568Z,103.83
2023-06-22T01:31:11.880Z,98.17
2023-06-22T01:32:14.897Z,99.50
2023-06-22T01:33:18.630Z,102.50
2023-06-22T01:34:21.625Z,106.83
2023-06-22T01:35:26.184Z,102.50
2023-06-22T01:36:28.613Z,98.67
2023-06-22T01:37:33.331Z,97.50
2023-06-22T01:38:36.884Z,97.00
2023-06-22T01:39:40.328Z,96.17
2023-06-22T01:40:42.710Z,98.17
2023-06-22T01:41:46.740Z,102.00
2023-06-22T01:42:49.775Z,106.67
2023-06-22T01:43:54.047Z,108.83
2023-06-22T01:44:58.667Z,110.00
2023-06-22T01:46:04.010Z,110.33
2023-06-22T01:47:07.056Z,112.33
2023-06-22T01:48:10.630Z,114.67
2023-06-22T01:49:15.020Z,116.17
2023-06-22T01:50:17.505Z,114.67
2023-06-22T01:51:20.976Z,113.17
2023-06-22T01:52:23.166Z,112.33
2023-06-22T01:53:26.659Z,111.67
2023-06-22T01:54:28.902Z,111.00
2023-06-22T01:55:32.106Z,111.67
2023-06-22T01:56:34.349Z,112.83
2023-06-22T01:57:38.746Z,113.00
2023-06-22T01:58:48.254Z,113.00
2023-06-22T02:00:00.515Z,112.00
2023-06-22T02:01:15.787Z,112.00
2023-06-22T02:02:27.997Z,113.83
2023-06-22T02:03:34.035Z,116.00
2023-06-22T02:04:41.819Z,115.33
2023-06-22T02:05:49.502Z,113.00
2023-06-22T02:06:57.664Z,108.50
2023-06-22T02:08:08.054Z,104.17
2023-06-22T02:09:15.407Z,102.33
2023-06-22T02:10:21.374Z,99.00
2023-06-22T02:11:28.535Z,97.00
2023-06-22T02:12:33.226Z,97.00
2023-06-22T02:13:36.698Z,95.83
2023-06-22T02:14:39.364Z,92.50
2023-06-22T02:15:44.310Z,86.67
2023-06-22T02:16:47.275Z,83.00
2023-06-22T02:17:50.712Z,81.17
2023-06-22T02:18:53.377Z,81.83
2023-06-22T02:19:56.573Z,82.50
2023-06-22T02:20:58.906Z,83.17
2023-06-22T02:22:02.072Z,85.33
2023-06-22T02:23:04.318Z,104.00
2023-06-22T02:24:07.594Z,119.00
2023-06-22T02:25:09.904Z,117.50
2023-06-22T02:26:13.365Z,112.67
2023-06-22T02:27:15.575Z,112.67
2023-06-22T02:28:18.875Z,115.83
2023-06-22T02:29:21.067Z,117.50
2023-06-22T02:30:24.270Z,119.00
2023-06-22T02:31:31.729Z,118.67
2023-06-22T02:32:35.647Z,118.50
2023-06-22T02:33:37.928Z,118.33
2023-06-22T02:34:41.152Z,116.67
2023-06-22T02:35:46.735Z,115.17
2023-06-22T02:36:52.928Z,113.67
2023-06-22T02:37:55.496Z,112.67
2023-06-22T02:39:02.297Z,111.50
2023-06-22T02:40:08.041Z,110.00
2023-06-22T02:41:14.235Z,106.50
2023-06-22T02:42:21.740Z,98.83
2023-06-22T02:43:23.980Z,97.50
2023-06-22T02:44:27.165Z,98.00
2023-06-22T02:45:29.849Z,97.83
2023-06-22T02:46:34.397Z,97.00
2023-06-22T02:47:36.718Z,98.00
2023-06-22T02:48:39.942Z,98.50
2023-06-22T02:49:43.006Z,101.33
2023-06-22T02:50:46.323Z,118.67
2023-06-22T02:51:49.440Z,132.67
2023-06-22T02:52:52.677Z,141.33
2023-06-22T02:53:58.823Z,147.50
2023-06-22T02:55:02.241Z,144.00
2023-06-22T02:56:06.625Z,144.17
2023-06-22T02:57:14.906Z,145.50
2023-06-22T02:58:18.208Z,148.17
2023-06-22T02:59:24.553Z,147.33
2023-06-22T03:00:31.932Z,144.33
2023-06-22T03:01:40.921Z,136.00
2023-06-22T03:02:44.602Z,125.83
2023-06-22T03:03:47.216Z,124.67
2023-06-22T03:04:50.959Z,120.17
2023-06-22T03:05:54.116Z,114.67
2023-06-22T03:06:57.330Z,113.67
2023-06-22T03:07:59.704Z,116.67
2023-06-22T03:09:04.978Z,120.50
2023-06-22T03:10:08.423Z,122.00
2023-06-22T03:11:11.595Z,123.00
2023-06-22T03:12:13.799Z,122.83
2023-06-22T03:13:17.939Z,120.67
2023-06-22T03:14:20.118Z,119.00
2023-06-22T03:15:23.629Z,119.00
2023-06-22T03:16:26.038Z,119.83
2023-06-22T03:17:30.786Z,116.67
2023-06-22T03:18:32.917Z,109.33
2023-06-22T03:19:36.389Z,103.67
2023-06-22T03:20:38.851Z,105.83
2023-06-22T03:21:42.734Z,110.33
2023-06-22T03:22:44.968Z,121.50
2023-06-22T03:23:48.179Z,129.67
2023-06-22T03:24:50.365Z,133.17
2023-06-22T03:25:53.561Z,132.33
2023-06-22T03:26:56.045Z,131.50
2023-06-22T03:27:59.218Z,134.17
2023-06-22T03:29:01.745Z,143.17
2023-06-22T03:30:05.629Z,144.17
2023-06-22T03:31:08.044Z,151.50
2023-06-22T03:32:11.245Z,149.83
2023-06-22T03:33:14.839Z,145.33
2023-06-22T03:34:18.005Z,143.00
2023-06-22T03:35:20.180Z,141.83
2023-06-22T03:36:23.483Z,141.17
2023-06-22T03:37:25.791Z,143.83
2023-06-22T03:38:29.040Z,149.17
2023-06-22T03:39:32.214Z,154.67
2023-06-22T03:40:34.444Z,153.00
2023-06-22T03:41:37.693Z,150.67
2023-06-22T03:42:39.890Z,146.50
2023-06-22T03:43:43.402Z,136.33
2023-06-22T03:44:45.766Z,134.00
2023-06-22T03:45:48.952Z,134.00
2023-06-22T03:46:51.421Z,132.50
2023-06-22T03:47:54.719Z,130.00
2023-06-22T03:48:58.396Z,128.00
2023-06-22T03:50:01.610Z,128.67
2023-06-22T03:51:04.214Z,131.67
2023-06-22T03:52:07.975Z,144.00
2023-06-22T03:53:10.178Z,159.33
2023-06-22T03:54:13.375Z,163.83
2023-06-22T03:55:15.574Z,164.50
2023-06-22T03:56:21.549Z,171.17
2023-06-22T03:57:23.751Z,199.50
2023-06-22T03:58:26.959Z,229.17
2023-06-22T03:59:29.205Z,237.17
2023-06-22T04:00:32.461Z,240.83
2023-06-22T04:01:34.795Z,248.67
2023-06-22T04:02:37.968Z,253.67
2023-06-22T04:03:40.310Z,255.67
2023-06-22T04:04:44.893Z,257.67
2023-06-22T04:05:47.580Z,254.00
2023-06-22T04:06:50.787Z,247.83
2023-06-22T04:07:52.956Z,247.17
2023-06-22T04:08:56.114Z,243.67
2023-06-22T04:09:58.273Z,245.00
2023-06-22T04:11:01.415Z,245.67
2023-06-22T04:12:04.154Z,247.00
2023-06-22T04:13:07.275Z,251.83
2023-06-22T04:14:09.430Z,260.83
2023-06-22T04:15:13.215Z,256.17
2023-06-22T04:16:15.594Z,251.00
2023-06-22T04:17:20.424Z,247.33
2023-06-22T04:18:22.613Z,239.50
2023-06-22T04:19:25.819Z,235.17
2023-06-22T04:20:30.214Z,257.00
2023-06-22T04:21:33.763Z,297.50
2023-06-22T04:22:35.932Z,303.67
2023-06-22T04:23:39.124Z,277.67
2023-06-22T04:24:41.338Z,264.50
2023-06-22T04:25:44.554Z,249.50
2023-06-22T04:26:48.084Z,242.33
2023-06-22T04:27:52.075Z,239.33
2023-06-22T04:28:56.731Z,237.33
2023-06-22T04:30:01.581Z,235.67
2023-06-22T04:31:04.128Z,235.00
2023-06-22T04:32:08.679Z,235.67
2023-06-22T04:33:10.787Z,236.00
2023-06-22T04:34:17.498Z,234.50
2023-06-22T04:35:19.857Z,234.67
2023-06-22T04:36:26.175Z,266.83
2023-06-22T04:37:28.529Z,268.50
2023-06-22T04:38:34.306Z,258.67
2023-06-22T04:39:37.084Z,240.83
2023-06-22T04:40:40.248Z,233.00
2023-06-22T04:41:45.363Z,251.33
2023-06-22T04:42:53.365Z,262.50
2023-06-22T04:44:01.018Z,258.33
2023-06-22T04:45:04.628Z,255.33
2023-06-22T04:46:06.806Z,252.17
2023-06-22T04:47:10.414Z,251.00
2023-06-22T04:48:17.469Z,251.00
2023-06-22T04:49:21.015Z,251.00
2023-06-22T04:50:24.715Z,252.17
2023-06-22T04:51:31.778Z,254.33
2023-06-22T04:52:33.981Z,255.00
2023-06-22T04:53:37.234Z,257.67
2023-06-22T04:54:41.519Z,258.00
2023-06-22T04:55:46.856Z,257.00
2023-06-22T04:56:49.252Z,257.00
2023-06-22T04:57:52.386Z,256.50
2023-06-22T04:58:57.036Z,256.00
2023-06-22T05:00:17.606Z,264.83
2023-06-22T05:01:20.725Z,273.83
2023-06-22T05:02:28.934Z,269.17
2023-06-22T05:03:31.356Z,267.50
2023-06-22T05:04:37.091Z,265.50
2023-06-22T05:05:39.632Z,254.50
2023-06-22T05:06:44.217Z,229.33
2023-06-22T05:07:49.467Z,219.00
2023-06-22T05:08:52.583Z,210.83
2023-06-22T05:09:55.711Z,196.17
2023-06-22T05:11:04.913Z,191.17
2023-06-22T05:12:11.413Z,189.83
2023-06-22T05:13:14.028Z,189.67
2023-06-22T05:14:17.289Z,192.50
2023-06-22T05:15:20.553Z,196.50
2023-06-22T05:16:25.363Z,198.00
2023-06-22T05:17:27.705Z,196.50
2023-06-22T05:18:31.544Z,192.50
2023-06-22T05:19:35.267Z,191.00
2023-06-22T05:20:38.653Z,186.17
2023-06-22T05:21:41.839Z,177.17
2023-06-22T05:22:45.384Z,176.50
2023-06-22T05:23:48.561Z,175.00
2023-06-22T05:24:50.724Z,174.50
2023-06-22T05:25:55.317Z,176.00
2023-06-22T05:26:57.608Z,178.33
2023-06-22T05:28:00.815Z,180.83
2023-06-22T05:29:04.208Z,182.83
2023-06-22T05:30:08.993Z,183.00
2023-06-22T05:31:12.344Z,183.83
2023-06-22T05:32:14.555Z,185.00
2023-06-22T05:33:17.765Z,191.17
2023-06-22T05:34:19.980Z,203.17
2023-06-22T05:35:23.132Z,205.83
2023-06-22T05:36:26.209Z,210.33
2023-06-22T05:37:30.585Z,215.17
2023-06-22T05:38:34.450Z,216.00
2023-06-22T05:39:39.561Z,215.33
2023-06-22T05:40:41.750Z,219.33
2023-06-22T05:41:45.314Z,223.83
2023-06-22T05:42:47.502Z,228.17
2023-06-22T05:43:50.603Z,230.00
2023-06-22T05:44:52.900Z,234.17
2023-06-22T05:45:56.085Z,235.33
2023-06-22T05:46:59.312Z,232.00
2023-06-22T05:48:02.682Z,232.33
2023-06-22T05:49:05.945Z,243.17
2023-06-22T05:50:12.385Z,247.17
2023-06-22T05:51:16.528Z,245.50
2023-06-22T05:52:18.713Z,245.67
2023-06-22T05:53:21.949Z,245.50
2023-06-22T05:54:25.488Z,243.17
2023-06-22T05:55:28.682Z,242.33
2023-06-22T05:56:30.865Z,242.00
2023-06-22T05:57:34.020Z,240.83
2023-06-22T05:58:38.006Z,238.67
2023-06-22T05:59:40.192Z,230.50
2023-06-22T06:00:44.262Z,227.33
2023-06-22T06:01:50.965Z,223.50
2023-06-22T06:02:54.348Z,219.33
2023-06-22T06:03:56.768Z,222.17
2023-06-22T06:05:00.060Z,223.83
2023-06-22T06:06:03.752Z,221.00
2023-06-22T06:07:09.704Z,195.67
2023-06-22T06:08:12.476Z,177.33
2023-06-22T06:09:15.830Z,166.00
2023-06-22T06:10:19.324Z,152.17
2023-06-22T06:11:22.821Z,164.17
2023-06-22T06:12:25.127Z,170.00
2023-06-22T06:13:28.440Z,180.50
2023-06-22T06:14:31.658Z,223.83
2023-06-22T06:15:34.977Z,226.17
2023-06-22T06:16:37.331Z,197.50
2023-06-22T06:17:48.030Z,141.50
2023-06-22T06:18:51.863Z,126.33
2023-06-22T06:19:54.245Z,121.67
2023-06-22T06:20:57.564Z,144.67
2023-06-22T06:22:00.108Z,142.67
2023-06-22T06:23:03.472Z,145.33
2023-06-22T06:24:06.206Z,142.33
2023-06-22T06:25:10.262Z,130.83
2023-06-22T06:26:13.795Z,130.83
2023-06-22T06:27:19.112Z,131.83
2023-06-22T06:28:21.346Z,132.67
2023-06-22T06:29:24.910Z,134.33
2023-06-22T06:30:27.422Z,137.00
2023-06-22T06:31:31.640Z,142.67
2023-06-22T06:32:33.935Z,148.67
2023-06-22T06:33:37.450Z,152.67
2023-06-22T06:34:39.744Z,154.50
2023-06-22T06:35:43.007Z,155.83
2023-06-22T06:36:46.259Z,160.50
2023-06-22T06:37:51.547Z,159.67
2023-06-22T06:38:54.761Z,133.33
2023-06-22T06:39:57.056Z,114.17
2023-06-22T06:41:00.969Z,92.83
2023-06-22T06:42:06.009Z,93.83
2023-06-22T06:43:09.480Z,98.67
2023-06-22T06:44:11.705Z,85.00
2023-06-22T06:45:17.079Z,74.00
2023-06-22T06:46:20.930Z,72.67
2023-06-22T06:47:23.141Z,75.00
2023-06-22T06:48:26.335Z,78.17
2023-06-22T06:49:29.412Z,76.17
2023-06-22T06:50:33.016Z,76.50
2023-06-22T06:51:35.545Z,76.00
2023-06-22T06:52:39.386Z,71.67
2023-06-22T06:53:42.826Z,69.17
2023-06-22T06:54:44.987Z,75.83
2023-06-22T06:55:48.300Z,78.50
2023-06-22T06:56:51.091Z,82.17
2023-06-22T06:57:55.674Z,114.33
2023-06-22T06:58:57.899Z,126.00
2023-06-22T07:00:01.126Z,124.67
2023-06-22T07:01:04.507Z,144.50
2023-06-22T07:02:07.809Z,151.17
2023-06-22T07:03:11.044Z,150.17
2023-06-22T07:04:13.243Z,136.00
2023-06-22T07:05:16.689Z,129.67
2023-06-22T07:06:19.970Z,134.00
2023-06-22T07:07:22.336Z,132.17
2023-06-22T07:08:25.549Z,124.33
2023-06-22T07:09:27.811Z,110.67
2023-06-22T07:10:31.671Z,98.33
2023-06-22T07:11:34.813Z,68.00
2023-06-22T07:12:38.060Z,50.00
2023-06-22T07:13:42.559Z,43.33
2023-06-22T07:14:44.871Z,50.17
2023-06-22T07:15:48.096Z,55.33
2023-06-22T07:16:51.302Z,49.00
2023-06-22T07:17:54.473Z,52.00
2023-06-22T07:18:57.729Z,44.33
2023-06-22T07:20:00.054Z,40.50
2023-06-22T07:21:04.891Z,48.67
2023-06-22T07:22:07.155Z,49.33
2023-06-22T07:23:10.321Z,50.33
2023-06-22T07:24:12.499Z,51.83
2023-06-22T07:25:16.720Z,64.83
2023-06-22T07:26:19.078Z,113.00
2023-06-22T07:27:22.495Z,105.00
2023-06-22T07:28:25.771Z,99.00
2023-06-22T07:29:29.330Z,90.83
2023-06-22T07:30:34.397Z,54.00
2023-06-22T07:31:36.874Z,39.50
2023-06-22T07:32:40.359Z,47.50
2023-06-22T07:33:43.531Z,42.00
2023-06-22T07:34:45.774Z,37.67
2023-06-22T07:35:49.736Z,36.67
2023-06-22T07:36:51.946Z,38.33
2023-06-22T07:37:55.033Z,39.83
2023-06-22T07:38:57.231Z,57.50
2023-06-22T07:40:00.484Z,104.00
2023-06-22T07:41:03.568Z,104.50
2023-06-22T07:42:07.416Z,98.50
2023-06-22T07:43:10.575Z,107.00
2023-06-22T07:44:12.795Z,110.17
2023-06-22T07:45:17.612Z,120.00
2023-06-22T07:46:19.800Z,115.00
2023-06-22T07:47:26.511Z,118.33
2023-06-22T07:48:29.729Z,132.67
2023-06-22T07:49:32.880Z,109.17
2023-06-22T07:50:35.055Z,58.50
2023-06-22T07:51:38.674Z,39.17
2023-06-22T07:52:41.008Z,42.83
2023-06-22T07:53:44.584Z,46.83
2023-06-22T07:54:46.835Z,58.00
2023-06-22T07:55:50.387Z,62.83
2023-06-22T07:56:53.853Z,71.50
2023-06-22T07:57:57.039Z,85.17
2023-06-22T07:59:00.296Z,86.00
2023-06-22T08:00:12.440Z,82.83
2023-06-22T08:01:17.895Z,66.67
2023-06-22T08:02:20.318Z,42.17
2023-06-22T08:03:23.589Z,32.33
2023-06-22T08:04:26.031Z,47.00
2023-06-22T08:05:29.246Z,59.83
2023-06-22T08:06:32.517Z,67.17
2023-06-22T08:07:34.701Z,53.00
2023-06-22T08:08:38.005Z,31.33
2023-06-22T08:09:40.204Z,21.50
2023-06-22T08:10:43.571Z,16.83
2023-06-22T08:11:45.766Z,16.67
2023-06-22T08:12:48.911Z,14.00
2023-06-22T08:13:52.144Z,12.00
2023-06-22T08:14:55.349Z,8.50
2023-06-22T08:15:58.559Z,7.50
2023-06-22T08:17:02.137Z,11.50
2023-06-22T08:18:05.719Z,14.50
2023-06-22T08:19:07.974Z,11.83
2023-06-22T08:20:13.256Z,13.83
2023-06-22T08:21:16.851Z,15.83
2023-06-22T08:22:19.973Z,16.67
2023-06-22T08:23:23.109Z,14.83
2023-06-22T08:24:26.222Z,11.00
2023-06-22T08:25:28.700Z,10.00
2023-06-22T08:26:34.475Z,10.17
2023-06-22T08:27:36.820Z,25.17
2023-06-22T08:28:39.962Z,33.67
2023-06-22T08:29:43.233Z,31.50
2023-06-22T08:30:46.431Z,29.50
2023-06-22T08:31:48.639Z,24.83
2023-06-22T08:32:53.256Z,21.83
2023-06-22T08:33:55.453Z,21.00
2023-06-22T08:34:59.484Z,19.50
2023-06-22T08:36:01.695Z,16.17
2023-06-22T08:37:07.507Z,13.67
2023-06-22T08:38:11.879Z,12.33
2023-06-22T08:39:14.060Z,12.67
2023-06-22T08:40:17.227Z,16.00
2023-06-22T08:41:20.471Z,57.33
2023-06-22T08:42:22.816Z,94.83
2023-06-22T08:43:25.979Z,87.67
2023-06-22T08:44:28.406Z,73.83
2023-06-22T08:45:31.580Z,58.17
2023-06-22T08:46:34.830Z,48.67
2023-06-22T08:47:37.176Z,32.00
2023-06-22T08:48:41.714Z,19.33
2023-06-22T08:49:43.901Z,21.33
2023-06-22T08:50:47.128Z,21.67
2023-06-22T08:51:50.668Z,20.67
2023-06-22T08:52:54.067Z,20.50
2023-06-22T08:53:56.308Z,19.83
2023-06-22T08:55:00.359Z,21.00
2023-06-22T08:56:03.553Z,22.50
2023-06-22T08:57:06.418Z,28.00
2023-06-22T08:58:09.605Z,37.17
2023-06-22T08:59:11.980Z,42.50
2023-06-22T09:00:18.479Z,43.67
2023-06-22T09:01:22.234Z,47.67
2023-06-22T09:02:24.626Z,45.00
2023-06-22T09:03:28.371Z,42.17
2023-06-22T09:04:35.653Z,38.50
2023-06-22T09:05:39.815Z,41.67
2023-06-22T09:06:46.072Z,50.67
2023-06-22T09:07:49.560Z,86.17
2023-06-22T09:08:52.971Z,120.67
2023-06-22T09:09:55.278Z,134.67
2023-06-22T09:10:58.481Z,152.00
2023-06-22T09:12:00.646Z,131.50
2023-06-22T09:13:03.878Z,130.67
2023-06-22T09:14:07.587Z,147.83
2023-06-22T09:15:15.626Z,122.00
2023-06-22T09:16:20.075Z,79.83
2023-06-22T09:17:22.850Z,89.67
2023-06-22T09:18:26.078Z,109.67
2023-06-22T09:19:29.314Z,76.00
2023-06-22T09:20:33.961Z,76.00
2023-06-22T09:21:36.270Z,77.17
2023-06-22T09:22:39.599Z,158.17
2023-06-22T09:23:42.884Z,361.00
2023-06-22T09:24:45.088Z,430.17
2023-06-22T09:25:49.091Z,394.83
2023-06-22T09:26:52.577Z,314.00
2023-06-22T09:27:55.775Z,235.00
2023-06-22T09:28:59.006Z,271.33
2023-06-22T09:30:02.216Z,307.00
2023-06-22T09:31:05.502Z,240.83
2023-06-22T09:32:08.601Z,241.17
2023-06-22T09:33:11.980Z,218.50
2023-06-22T09:34:15.232Z,149.33
2023-06-22T09:35:17.576Z,114.67
2023-06-22T09:36:22.241Z,78.33
2023-06-22T09:37:25.447Z,63.50
2023-06-22T09:38:27.637Z,43.83
2023-06-22T09:39:30.939Z,40.50
2023-06-22T09:40:36.645Z,41.00
2023-06-22T09:41:38.911Z,45.67
2023-06-22T09:42:43.615Z,65.67
2023-06-22T09:43:45.852Z,78.00
2023-06-22T09:44:51.391Z,91.67
2023-06-22T09:45:53.750Z,77.33
2023-06-22T09:46:56.970Z,70.17
2023-06-22T09:48:00.266Z,74.67
2023-06-22T09:49:02.609Z,92.17
2023-06-22T09:50:06.657Z,82.33
2023-06-22T09:51:08.962Z,59.83
2023-06-22T09:52:13.552Z,58.83
2023-06-22T09:53:15.856Z,56.83
2023-06-22T09:54:19.303Z,61.17
2023-06-22T09:55:22.498Z,47.50
2023-06-22T09:56:27.514Z,48.33
2023-06-22T09:57:35.038Z,44.33
2023-06-22T09:58:38.280Z,53.17
2023-06-22T09:59:42.213Z,105.17
2023-06-22T10:00:45.518Z,107.50
2023-06-22T10:01:47.709Z,115.67
2023-06-22T10:02:51.710Z,98.67
2023-06-22T10:03:57.273Z,66.17
2023-06-22T10:05:00.933Z,46.50
2023-06-22T10:06:04.738Z,36.33
2023-06-22T10:07:07.207Z,34.67
2023-06-22T10:08:11.691Z,37.83
2023-06-22T10:09:13.894Z,46.50
2023-06-22T10:10:17.356Z,105.00
2023-06-22T10:11:20.665Z,169.33
2023-06-22T10:12:27.697Z,135.00
2023-06-22T10:13:30.839Z,105.67
2023-06-22T10:14:34.017Z,101.67
2023-06-22T10:15:36.253Z,98.50
2023-06-22T10:16:39.475Z,97.00
2023-06-22T10:17:44.697Z,95.00
2023-06-22T10:18:47.891Z,62.17
2023-06-22T10:19:50.065Z,55.67
2023-06-22T10:20:53.922Z,61.50
2023-06-22T10:21:56.588Z,70.33
2023-06-22T10:23:00.178Z,103.00
2023-06-22T10:24:07.368Z,151.83
2023-06-22T10:25:11.558Z,163.67
2023-06-22T10:26:14.717Z,183.00
2023-06-22T10:27:16.976Z,211.00
2023-06-22T10:28:20.138Z,208.67
2023-06-22T10:29:22.295Z,160.00
2023-06-22T10:30:25.547Z,126.83
2023-06-22T10:31:28.600Z,88.17
2023-06-22T10:32:32.021Z,64.83
2023-06-22T10:33:34.304Z,54.50
2023-06-22T10:34:37.591Z,66.33
2023-06-22T10:35:41.173Z,53.50
2023-06-22T10:36:43.537Z,47.33
2023-06-22T10:37:47.867Z,44.67
2023-06-22T10:38:51.350Z,39.50
2023-06-22T10:39:54.864Z,36.67
2023-06-22T10:40:59.425Z,45.83
2023-06-22T10:42:02.678Z,59.33
2023-06-22T10:43:06.576Z,65.67
2023-06-22T10:44:09.672Z,95.67
2023-06-22T10:45:13.264Z,125.33
2023-06-22T10:46:15.407Z,125.33
2023-06-22T10:47:18.643Z,128.17
2023-06-22T10:48:24.530Z,108.67
2023-06-22T10:49:27.695Z,83.33
2023-06-22T10:50:31.157Z,61.17
2023-06-22T10:51:33.797Z,72.67
2023-06-22T10:52:36.949Z,75.17
2023-06-22T10:53:40.094Z,91.00
2023-06-22T10:54:42.514Z,86.33
2023-06-22T10:55:55.562Z,96.83
2023-06-22T10:57:00.420Z,140.67
2023-06-22T10:58:02.606Z,111.00
2023-06-22T10:59:05.794Z,130.67
2023-06-22T11:00:10.186Z,314.17
2023-06-22T11:01:26.705Z,219.33
2023-06-22T11:02:36.503Z,184.50
2023-06-22T11:03:38.922Z,344.67
2023-06-22T11:04:42.291Z,359.00
2023-06-22T11:05:45.523Z,317.33
2023-06-22T11:06:49.746Z,243.00
2023-06-22T11:07:54.244Z,219.33
2023-06-22T11:09:04.220Z,168.67
2023-06-22T11:10:10.367Z,154.17
2023-06-22T11:11:14.080Z,152.83
2023-06-22T11:12:17.353Z,123.83
2023-06-22T11:13:20.581Z,91.67
2023-06-22T11:14:24.174Z,71.67
2023-06-22T11:15:27.344Z,66.50
2023-06-22T11:16:29.533Z,54.83
2023-06-22T11:17:32.886Z,46.50
2023-06-22T11:18:36.113Z,40.67
2023-06-22T11:19:38.301Z,41.50
2023-06-22T11:20:42.010Z,40.50
2023-06-22T11:21:44.259Z,42.00
2023-06-22T11:22:47.381Z,39.83
2023-06-22T11:23:51.596Z,42.33
2023-06-22T11:24:53.922Z,58.17
2023-06-22T11:25:57.446Z,63.67
2023-06-22T11:27:01.058Z,92.67
2023-06-22T11:28:05.001Z,114.50
2023-06-22T11:29:07.236Z,99.50
2023-06-22T11:30:11.168Z,104.67
2023-06-22T11:32:21.141Z,108.50
2023-06-22T11:33:24.400Z,96.83
2023-06-22T11:34:27.165Z,87.67
2023-06-22T11:35:30.365Z,90.33
2023-06-22T11:36:34.449Z,91.50
2023-06-22T11:37:38.830Z,65.00
2023-06-22T11:38:42.070Z,51.83
2023-06-22T11:39:53.340Z,45.17
2023-06-22T11:41:03.405Z,45.17
2023-06-22T11:42:07.673Z,45.17
2023-06-22T11:43:10.825Z,54.00
2023-06-22T11:44:12.971Z,54.83
2023-06-22T11:45:16.136Z,49.67
2023-06-22T11:46:18.433Z,53.50
2023-06-22T11:47:21.656Z,70.33
2023-06-22T11:48:24.945Z,73.00
2023-06-22T11:49:28.097Z,72.67
2023-06-22T11:50:35.462Z,68.33
2023-06-22T11:51:38.601Z,59.50
2023-06-22T11:52:41.783Z,60.17
2023-06-22T11:53:43.978Z,80.50
2023-06-22T11:54:48.052Z,96.00
2023-06-22T11:55:51.205Z,97.17
2023-06-22T11:56:54.413Z,95.50
2023-06-22T11:58:03.547Z,102.33
2023-06-22T11:59:06.963Z,113.17
2023-06-22T12:00:17.516Z,100.17
2023-06-22T12:01:21.033Z,100.50
2023-06-22T12:02:24.297Z,115.67
2023-06-22T12:03:27.600Z,140.17
2023-06-22T12:04:30.244Z,237.50
2023-06-22T12:05:33.387Z,231.67
2023-06-22T12:06:39.308Z,186.83
2023-06-22T12:07:42.650Z,153.67
2023-06-22T12:08:44.874Z,168.67
2023-06-22T12:09:48.033Z,199.50
2023-06-22T12:10:52.175Z,175.83
2023-06-22T12:11:54.359Z,158.33
2023-06-22T12:13:00.991Z,119.67
2023-06-22T12:14:04.217Z,111.67
2023-06-22T12:15:08.552Z,124.17
2023-06-22T12:16:13.345Z,128.33
2023-06-22T12:17:16.624Z,131.50
2023-06-22T12:18:21.856Z,110.50
2023-06-22T12:19:24.951Z,98.00
2023-06-22T12:20:28.394Z,103.67
2023-06-22T12:21:30.805Z,97.00
2023-06-22T12:22:33.948Z,105.50
2023-06-22T12:23:37.108Z,106.83
2023-06-22T12:24:40.199Z,81.50
2023-06-22T12:25:43.411Z,63.83
2023-06-22T12:26:46.592Z,62.00
2023-06-22T12:27:48.725Z,71.83
2023-06-22T12:28:53.181Z,83.50
2023-06-22T12:29:56.295Z,78.67
2023-06-22T12:30:59.494Z,69.17
2023-06-22T12:32:02.647Z,63.17
2023-06-22T12:33:05.849Z,66.83
2023-06-22T12:34:08.978Z,73.33
2023-06-22T12:35:15.058Z,70.83
2023-06-22T12:36:18.653Z,63.00
2023-06-22T12:37:21.020Z,62.33
2023-06-22T12:38:25.953Z,64.17
2023-06-22T12:39:29.119Z,65.00
2023-06-22T12:40:32.490Z,64.00
2023-06-22T12:41:35.004Z,81.17
2023-06-22T12:42:38.290Z,117.83
2023-06-22T12:43:42.451Z,119.67
2023-06-22T12:44:46.908Z,142.50
2023-06-22T12:45:50.210Z,115.33
2023-06-22T12:46:53.483Z,104.33
2023-06-22T12:47:56.685Z,88.67
2023-06-22T12:48:59.030Z,68.67
2023-06-22T12:50:02.275Z,68.83
2023-06-22T12:51:05.416Z,65.17
2023-06-22T12:52:10.890Z,62.17
2023-06-22T12:53:14.045Z,56.00
2023-06-22T12:54:16.327Z,50.17
2023-06-22T12:55:19.501Z,53.00
2023-06-22T12:56:22.618Z,56.17
2023-06-22T12:57:26.622Z,60.83
2023-06-22T12:58:28.783Z,68.00
2023-06-22T12:59:32.104Z,106.67
2023-06-22T13:00:36.672Z,130.17
2023-06-22T13:01:38.862Z,143.50
2023-06-22T13:02:42.055Z,117.17
2023-06-22T13:03:44.380Z,108.33
2023-06-22T13:04:47.621Z,105.33
2023-06-22T13:05:49.832Z,92.50
2023-06-22T13:06:52.960Z,82.33
2023-06-22T13:07:55.815Z,107.50
2023-06-22T13:09:19.610Z,145.50
2023-06-22T13:10:22.346Z,137.33
2023-06-22T13:11:25.519Z,127.50
2023-06-22T13:12:28.727Z,111.67
2023-06-22T13:13:31.920Z,104.67
2023-06-22T13:14:35.094Z,96.00
2023-06-22T13:15:39.548Z,104.67
2023-06-22T13:16:41.737Z,111.50
2023-06-22T13:17:45.031Z,111.00
2023-06-22T13:18:48.184Z,113.17
2023-06-22T13:19:51.381Z,163.00
2023-06-22T13:20:55.835Z,231.67
2023-06-22T13:21:59.011Z,268.00
2023-06-22T13:23:01.170Z,253.00
2023-06-22T13:24:04.680Z,216.33
2023-06-22T13:25:08.177Z,155.83
2023-06-22T13:26:11.301Z,109.83
2023-06-22T13:27:13.457Z,140.33
2023-06-22T13:28:27.797Z,183.17
2023-06-22T13:29:32.322Z,164.67
2023-06-22T13:30:35.595Z,137.83
2023-06-22T13:31:39.965Z,108.17